sensor_id;sensor_type;location;lat;lon;timestamp;temperature;humidity
6270;DHT22;3168;51.684;6.954;2023-08-06T00:00:39;15.70;80.60
6270;DHT22;3168;51.684;6.954;2023-08-06T00:03:05;15.80;85.10
6270;DHT22;3168;51.684;6.954;2023-08-06T00:05:30;15.80;78.50
6270;DHT22;3168;51.684;6.954;2023-08-06T00:07:57;15.70;76.20
6270;DHT22;3168;51.684;6.954;2023-08-06T00:10:23;15.70;72.90
6270;DHT22;3168;51.684;6.954;2023-08-06T00:12:49;15.70;79.90
6270;DHT22;3168;51.684;6.954;2023-08-06T00:15:14;15.80;85.10
6270;DHT22;3168;51.684;6.954;2023-08-06T00:17:40;15.70;87.80
6270;DHT22;3168;51.684;6.954;2023-08-06T00:20:07;15.70;85.70
6270;DHT22;3168;51.684;6.954;2023-08-06T00:22:33;15.60;91.40
6270;DHT22;3168;51.684;6.954;2023-08-06T00:24:58;15.60;93.70
6270;DHT22;3168;51.684;6.954;2023-08-06T00:27:24;15.70;96.10
6270;DHT22;3168;51.684;6.954;2023-08-06T00:29:50;15.70;99.20
6270;DHT22;3168;51.684;6.954;2023-08-06T00:32:16;15.60;94.30
6270;DHT22;3168;51.684;6.954;2023-08-06T00:34:42;15.70;98.70
6270;DHT22;3168;51.684;6.954;2023-08-06T00:37:07;15.70;96.70
6270;DHT22;3168;51.684;6.954;2023-08-06T00:39:33;15.60;93.70
6270;DHT22;3168;51.684;6.954;2023-08-06T00:41:59;15.60;93.60
6270;DHT22;3168;51.684;6.954;2023-08-06T00:44:25;15.50;96.40
6270;DHT22;3168;51.684;6.954;2023-08-06T00:46:51;15.50;99.90
6270;DHT22;3168;51.684;6.954;2023-08-06T00:49:16;15.50;99.90
6270;DHT22;3168;51.684;6.954;2023-08-06T00:51:42;15.40;99.90
6270;DHT22;3168;51.684;6.954;2023-08-06T00:54:08;15.40;99.90
6270;DHT22;3168;51.684;6.954;2023-08-06T00:56:34;15.40;99.90
6270;DHT22;3168;51.684;6.954;2023-08-06T00:59:00;15.40;99.90
6270;DHT22;3168;51.684;6.954;2023-08-06T01:01:25;15.30;99.90
6270;DHT22;3168;51.684;6.954;2023-08-06T01:03:51;15.30;99.90
6270;DHT22;3168;51.684;6.954;2023-08-06T01:06:17;15.30;99.90
6270;DHT22;3168;51.684;6.954;2023-08-06T01:08:48;15.30;99.90
6270;DHT22;3168;51.684;6.954;2023-08-06T01:11:20;15.30;99.90
6270;DHT22;3168;51.684;6.954;2023-08-06T01:13:45;15.20;99.90
6270;DHT22;3168;51.684;6.954;2023-08-06T01:16:10;15.30;99.90
6270;DHT22;3168;51.684;6.954;2023-08-06T01:18:36;15.30;99.90
6270;DHT22;3168;51.684;6.954;2023-08-06T01:21:02;15.30;99.90
6270;DHT22;3168;51.684;6.954;2023-08-06T01:23:28;15.40;99.90
6270;DHT22;3168;51.684;6.954;2023-08-06T01:25:59;15.40;99.90
6270;DHT22;3168;51.684;6.954;2023-08-06T01:28:44;15.40;99.90
6270;DHT22;3168;51.684;6.954;2023-08-06T01:31:07;15.30;99.90
6270;DHT22;3168;51.684;6.954;2023-08-06T01:33:32;15.40;99.90
6270;DHT22;3168;51.684;6.954;2023-08-06T01:35:58;15.30;99.90
6270;DHT22;3168;51.684;6.954;2023-08-06T01:38:23;15.40;99.90
6270;DHT22;3168;51.684;6.954;2023-08-06T01:40:49;15.30;99.90
6270;DHT22;3168;51.684;6.954;2023-08-06T01:43:15;15.30;99.90
6270;DHT22;3168;51.684;6.954;2023-08-06T01:45:41;15.30;99.90
6270;DHT22;3168;51.684;6.954;2023-08-06T01:48:07;15.30;99.90
6270;DHT22;3168;51.684;6.954;2023-08-06T01:50:32;15.20;99.90
6270;DHT22;3168;51.684;6.954;2023-08-06T01:52:58;15.40;99.90
6270;DHT22;3168;51.684;6.954;2023-08-06T01:55:24;15.30;99.90
6270;DHT22;3168;51.684;6.954;2023-08-06T01:57:50;15.40;99.90
6270;DHT22;3168;51.684;6.954;2023-08-06T02:00:16;15.30;99.90
6270;DHT22;3168;51.684;6.954;2023-08-06T02:02:41;15.40;99.90
6270;DHT22;3168;51.684;6.954;2023-08-06T02:05:07;15.30;99.90
6270;DHT22;3168;51.684;6.954;2023-08-06T02:07:33;15.40;99.90
6270;DHT22;3168;51.684;6.954;2023-08-06T02:09:59;15.30;99.90
6270;DHT22;3168;51.684;6.954;2023-08-06T02:12:24;15.30;99.90
6270;DHT22;3168;51.684;6.954;2023-08-06T02:14:51;15.50;99.90
6270;DHT22;3168;51.684;6.954;2023-08-06T02:17:17;15.50;99.90
6270;DHT22;3168;51.684;6.954;2023-08-06T02:19:43;15.40;99.90
6270;DHT22;3168;51.684;6.954;2023-08-06T02:22:08;15.40;99.90
6270;DHT22;3168;51.684;6.954;2023-08-06T02:24:34;15.30;99.90
6270;DHT22;3168;51.684;6.954;2023-08-06T02:27:00;15.30;99.90
6270;DHT22;3168;51.684;6.954;2023-08-06T02:29:26;15.30;99.90
6270;DHT22;3168;51.684;6.954;2023-08-06T02:31:52;15.30;99.90
6270;DHT22;3168;51.684;6.954;2023-08-06T02:34:17;15.30;99.90
6270;DHT22;3168;51.684;6.954;2023-08-06T02:36:43;15.30;99.90
6270;DHT22;3168;51.684;6.954;2023-08-06T02:39:09;15.30;99.90
6270;DHT22;3168;51.684;6.954;2023-08-06T02:41:35;15.30;99.90
6270;DHT22;3168;51.684;6.954;2023-08-06T02:44:01;15.20;99.90
6270;DHT22;3168;51.684;6.954;2023-08-06T02:46:27;15.20;99.90
6270;DHT22;3168;51.684;6.954;2023-08-06T02:48:53;15.20;99.90
6270;DHT22;3168;51.684;6.954;2023-08-06T02:51:19;15.20;99.90
6270;DHT22;3168;51.684;6.954;2023-08-06T02:53:45;15.30;99.90
6270;DHT22;3168;51.684;6.954;2023-08-06T02:56:11;15.30;99.90
6270;DHT22;3168;51.684;6.954;2023-08-06T02:58:37;15.20;99.90
6270;DHT22;3168;51.684;6.954;2023-08-06T03:01:03;15.30;99.90
6270;DHT22;3168;51.684;6.954;2023-08-06T03:03:29;15.30;99.90
6270;DHT22;3168;51.684;6.954;2023-08-06T03:05:54;15.40;99.90
6270;DHT22;3168;51.684;6.954;2023-08-06T03:08:20;15.40;99.90
6270;DHT22;3168;51.684;6.954;2023-08-06T03:10:46;15.40;99.90
6270;DHT22;3168;51.684;6.954;2023-08-06T03:13:12;15.30;99.90
6270;DHT22;3168;51.684;6.954;2023-08-06T03:15:37;15.40;99.90
6270;DHT22;3168;51.684;6.954;2023-08-06T03:18:03;15.40;99.90
6270;DHT22;3168;51.684;6.954;2023-08-06T03:20:29;15.30;99.90
6270;DHT22;3168;51.684;6.954;2023-08-06T03:22:55;15.20;99.90
6270;DHT22;3168;51.684;6.954;2023-08-06T03:25:21;15.20;99.90
6270;DHT22;3168;51.684;6.954;2023-08-06T03:27:47;15.20;99.90
6270;DHT22;3168;51.684;6.954;2023-08-06T03:30:12;15.20;99.90
6270;DHT22;3168;51.684;6.954;2023-08-06T03:32:38;15.20;99.90
6270;DHT22;3168;51.684;6.954;2023-08-06T03:35:05;15.10;99.90
6270;DHT22;3168;51.684;6.954;2023-08-06T03:37:30;15.10;99.90
6270;DHT22;3168;51.684;6.954;2023-08-06T03:39:56;15.10;99.90
6270;DHT22;3168;51.684;6.954;2023-08-06T03:42:22;15.10;99.90
6270;DHT22;3168;51.684;6.954;2023-08-06T03:44:48;15.00;99.90
6270;DHT22;3168;51.684;6.954;2023-08-06T03:47:14;15.10;99.90
6270;DHT22;3168;51.684;6.954;2023-08-06T03:49:39;15.00;99.90
6270;DHT22;3168;51.684;6.954;2023-08-06T03:52:06;14.90;99.90
6270;DHT22;3168;51.684;6.954;2023-08-06T03:54:32;14.90;99.90
6270;DHT22;3168;51.684;6.954;2023-08-06T03:56:57;14.90;99.90
6270;DHT22;3168;51.684;6.954;2023-08-06T03:59:23;15.00;99.90
6270;DHT22;3168;51.684;6.954;2023-08-06T04:01:49;15.00;99.90
6270;DHT22;3168;51.684;6.954;2023-08-06T04:04:15;15.10;99.90
6270;DHT22;3168;51.684;6.954;2023-08-06T04:06:41;15.10;99.90
6270;DHT22;3168;51.684;6.954;2023-08-06T04:09:06;15.10;99.90
6270;DHT22;3168;51.684;6.954;2023-08-06T04:11:32;15.00;99.90
6270;DHT22;3168;51.684;6.954;2023-08-06T04:13:58;15.10;99.90
6270;DHT22;3168;51.684;6.954;2023-08-06T04:16:24;15.00;99.90
6270;DHT22;3168;51.684;6.954;2023-08-06T04:18:49;15.00;99.90
6270;DHT22;3168;51.684;6.954;2023-08-06T04:21:15;15.00;99.90
6270;DHT22;3168;51.684;6.954;2023-08-06T04:23:42;15.00;99.90
6270;DHT22;3168;51.684;6.954;2023-08-06T04:26:07;15.00;99.90
6270;DHT22;3168;51.684;6.954;2023-08-06T04:28:34;15.00;99.90
6270;DHT22;3168;51.684;6.954;2023-08-06T04:31:00;15.00;99.90
6270;DHT22;3168;51.684;6.954;2023-08-06T04:33:25;15.00;99.90
6270;DHT22;3168;51.684;6.954;2023-08-06T04:35:54;15.10;99.90
6270;DHT22;3168;51.684;6.954;2023-08-06T04:38:19;15.00;99.90
6270;DHT22;3168;51.684;6.954;2023-08-06T04:40:45;15.00;99.90
6270;DHT22;3168;51.684;6.954;2023-08-06T04:43:10;15.00;99.90
6270;DHT22;3168;51.684;6.954;2023-08-06T04:45:36;15.00;99.90
6270;DHT22;3168;51.684;6.954;2023-08-06T04:48:02;15.10;99.90
6270;DHT22;3168;51.684;6.954;2023-08-06T04:50:28;15.10;99.90
6270;DHT22;3168;51.684;6.954;2023-08-06T04:52:53;15.10;99.90
6270;DHT22;3168;51.684;6.954;2023-08-06T04:55:19;15.00;99.90
6270;DHT22;3168;51.684;6.954;2023-08-06T04:57:45;15.00;99.90
6270;DHT22;3168;51.684;6.954;2023-08-06T05:00:11;15.00;99.90
6270;DHT22;3168;51.684;6.954;2023-08-06T05:02:37;15.00;99.90
6270;DHT22;3168;51.684;6.954;2023-08-06T05:05:03;15.00;99.90
6270;DHT22;3168;51.684;6.954;2023-08-06T05:07:29;14.90;99.90
6270;DHT22;3168;51.684;6.954;2023-08-06T05:09:55;14.90;99.90
6270;DHT22;3168;51.684;6.954;2023-08-06T05:12:21;14.90;99.90
6270;DHT22;3168;51.684;6.954;2023-08-06T05:14:48;14.90;99.90
6270;DHT22;3168;51.684;6.954;2023-08-06T05:17:13;14.90;99.90
6270;DHT22;3168;51.684;6.954;2023-08-06T05:19:39;15.00;99.90
6270;DHT22;3168;51.684;6.954;2023-08-06T05:22:05;15.10;99.90
6270;DHT22;3168;51.684;6.954;2023-08-06T05:24:31;15.10;99.90
6270;DHT22;3168;51.684;6.954;2023-08-06T05:26:56;15.20;99.90
6270;DHT22;3168;51.684;6.954;2023-08-06T05:29:22;15.20;99.90
6270;DHT22;3168;51.684;6.954;2023-08-06T05:31:48;15.20;99.90
6270;DHT22;3168;51.684;6.954;2023-08-06T05:34:14;15.20;99.90
6270;DHT22;3168;51.684;6.954;2023-08-06T05:36:40;15.20;99.90
6270;DHT22;3168;51.684;6.954;2023-08-06T05:39:05;15.20;99.90
6270;DHT22;3168;51.684;6.954;2023-08-06T05:41:32;15.20;99.90
6270;DHT22;3168;51.684;6.954;2023-08-06T05:43:57;15.20;99.90
6270;DHT22;3168;51.684;6.954;2023-08-06T05:46:23;15.20;99.90
6270;DHT22;3168;51.684;6.954;2023-08-06T05:48:49;15.30;99.90
6270;DHT22;3168;51.684;6.954;2023-08-06T05:51:15;15.30;99.90
6270;DHT22;3168;51.684;6.954;2023-08-06T05:53:41;15.40;99.90
6270;DHT22;3168;51.684;6.954;2023-08-06T05:56:06;15.50;99.90
6270;DHT22;3168;51.684;6.954;2023-08-06T05:58:32;15.60;99.90
6270;DHT22;3168;51.684;6.954;2023-08-06T06:00:58;15.70;99.90
6270;DHT22;3168;51.684;6.954;2023-08-06T06:03:24;15.60;99.90
6270;DHT22;3168;51.684;6.954;2023-08-06T06:05:49;15.60;99.90
6270;DHT22;3168;51.684;6.954;2023-08-06T06:08:15;15.80;99.90
6270;DHT22;3168;51.684;6.954;2023-08-06T06:10:41;15.90;95.60
6270;DHT22;3168;51.684;6.954;2023-08-06T06:13:07;15.90;88.30
6270;DHT22;3168;51.684;6.954;2023-08-06T06:15:32;16.00;86.60
6270;DHT22;3168;51.684;6.954;2023-08-06T06:17:58;15.90;82.00
6270;DHT22;3168;51.684;6.954;2023-08-06T06:20:24;15.90;78.90
6270;DHT22;3168;51.684;6.954;2023-08-06T06:22:50;15.90;79.60
6270;DHT22;3168;51.684;6.954;2023-08-06T06:25:16;15.80;80.80
6270;DHT22;3168;51.684;6.954;2023-08-06T06:27:41;15.90;86.30
6270;DHT22;3168;51.684;6.954;2023-08-06T06:30:08;15.90;91.60
6270;DHT22;3168;51.684;6.954;2023-08-06T06:32:34;16.00;82.80
6270;DHT22;3168;51.684;6.954;2023-08-06T06:35:00;16.10;81.20
6270;DHT22;3168;51.684;6.954;2023-08-06T06:37:25;16.40;75.50
6270;DHT22;3168;51.684;6.954;2023-08-06T06:39:51;16.40;59.60
6270;DHT22;3168;51.684;6.954;2023-08-06T06:42:17;16.40;50.70
6270;DHT22;3168;51.684;6.954;2023-08-06T06:44:43;16.30;58.10
6270;DHT22;3168;51.684;6.954;2023-08-06T06:47:08;16.30;41.60
6270;DHT22;3168;51.684;6.954;2023-08-06T06:49:34;16.40;42.50
6270;DHT22;3168;51.684;6.954;2023-08-06T06:52:00;16.40;31.10
6270;DHT22;3168;51.684;6.954;2023-08-06T06:54:26;16.40;37.40
6270;DHT22;3168;51.684;6.954;2023-08-06T06:56:51;16.30;37.10
6270;DHT22;3168;51.684;6.954;2023-08-06T06:59:17;16.50;45.90
6270;DHT22;3168;51.684;6.954;2023-08-06T07:01:44;16.60;27.90
6270;DHT22;3168;51.684;6.954;2023-08-06T07:04:09;16.60;26.60
6270;DHT22;3168;51.684;6.954;2023-08-06T07:06:35;16.70;27.10
6270;DHT22;3168;51.684;6.954;2023-08-06T07:09:01;16.80;24.00
6270;DHT22;3168;51.684;6.954;2023-08-06T07:11:27;17.00;22.80
6270;DHT22;3168;51.684;6.954;2023-08-06T07:13:56;17.10;18.80
6270;DHT22;3168;51.684;6.954;2023-08-06T07:16:21;17.10;7.90
6270;DHT22;3168;51.684;6.954;2023-08-06T07:18:47;17.20;6.10
6270;DHT22;3168;51.684;6.954;2023-08-06T07:21:13;17.20;1.00
6270;DHT22;3168;51.684;6.954;2023-08-06T07:23:39;17.20;1.00
6270;DHT22;3168;51.684;6.954;2023-08-06T07:26:04;17.10;1.00
6270;DHT22;3168;51.684;6.954;2023-08-06T07:28:30;17.00;1.00
6270;DHT22;3168;51.684;6.954;2023-08-06T07:30:56;17.20;1.00
6270;DHT22;3168;51.684;6.954;2023-08-06T07:33:22;17.30;1.00
6270;DHT22;3168;51.684;6.954;2023-08-06T07:35:48;17.40;1.00
6270;DHT22;3168;51.684;6.954;2023-08-06T07:38:14;17.40;1.00
6270;DHT22;3168;51.684;6.954;2023-08-06T07:40:40;17.40;1.00
6270;DHT22;3168;51.684;6.954;2023-08-06T07:43:06;17.60;1.00
6270;DHT22;3168;51.684;6.954;2023-08-06T07:45:34;17.60;1.00
6270;DHT22;3168;51.684;6.954;2023-08-06T07:48:00;17.50;1.00
6270;DHT22;3168;51.684;6.954;2023-08-06T07:50:26;17.40;1.00
6270;DHT22;3168;51.684;6.954;2023-08-06T07:52:51;17.40;1.00
6270;DHT22;3168;51.684;6.954;2023-08-06T07:55:17;17.40;1.00
6270;DHT22;3168;51.684;6.954;2023-08-06T07:57:43;17.40;1.00
6270;DHT22;3168;51.684;6.954;2023-08-06T08:00:09;17.30;1.00
6270;DHT22;3168;51.684;6.954;2023-08-06T08:02:35;17.30;1.00
6270;DHT22;3168;51.684;6.954;2023-08-06T08:05:01;17.30;1.00
6270;DHT22;3168;51.684;6.954;2023-08-06T08:07:27;17.30;1.00
6270;DHT22;3168;51.684;6.954;2023-08-06T08:09:52;17.50;1.00
6270;DHT22;3168;51.684;6.954;2023-08-06T08:12:18;17.60;1.00
6270;DHT22;3168;51.684;6.954;2023-08-06T08:14:44;17.80;1.00
6270;DHT22;3168;51.684;6.954;2023-08-06T08:17:10;17.90;1.00
6270;DHT22;3168;51.684;6.954;2023-08-06T08:19:36;17.80;1.00
6270;DHT22;3168;51.684;6.954;2023-08-06T08:22:01;17.90;1.00
6270;DHT22;3168;51.684;6.954;2023-08-06T08:24:27;18.10;1.00
6270;DHT22;3168;51.684;6.954;2023-08-06T08:26:53;17.90;1.00
6270;DHT22;3168;51.684;6.954;2023-08-06T08:29:19;17.80;1.00
6270;DHT22;3168;51.684;6.954;2023-08-06T08:31:44;17.80;1.00
6270;DHT22;3168;51.684;6.954;2023-08-06T08:34:10;17.80;1.00
6270;DHT22;3168;51.684;6.954;2023-08-06T08:36:36;17.90;1.00
6270;DHT22;3168;51.684;6.954;2023-08-06T08:39:02;17.70;1.00
6270;DHT22;3168;51.684;6.954;2023-08-06T08:41:28;17.70;1.00
6270;DHT22;3168;51.684;6.954;2023-08-06T08:43:54;17.80;1.00
6270;DHT22;3168;51.684;6.954;2023-08-06T08:46:20;18.10;1.00
6270;DHT22;3168;51.684;6.954;2023-08-06T08:48:45;18.40;1.00
6270;DHT22;3168;51.684;6.954;2023-08-06T08:51:11;18.00;1.00
6270;DHT22;3168;51.684;6.954;2023-08-06T08:53:37;18.00;1.00
6270;DHT22;3168;51.684;6.954;2023-08-06T08:56:03;17.90;1.00
6270;DHT22;3168;51.684;6.954;2023-08-06T08:58:29;17.90;1.00
6270;DHT22;3168;51.684;6.954;2023-08-06T09:00:55;18.00;1.00
6270;DHT22;3168;51.684;6.954;2023-08-06T09:03:20;18.10;1.00
6270;DHT22;3168;51.684;6.954;2023-08-06T09:05:47;18.10;1.00
6270;DHT22;3168;51.684;6.954;2023-08-06T09:08:14;18.10;1.00
6270;DHT22;3168;51.684;6.954;2023-08-06T09:10:38;18.10;1.00
6270;DHT22;3168;51.684;6.954;2023-08-06T09:13:03;18.10;1.00
6270;DHT22;3168;51.684;6.954;2023-08-06T09:15:29;18.10;1.00
6270;DHT22;3168;51.684;6.954;2023-08-06T09:17:55;18.10;1.00
6270;DHT22;3168;51.684;6.954;2023-08-06T09:20:21;18.00;1.00
6270;DHT22;3168;51.684;6.954;2023-08-06T09:22:47;18.20;1.00
6270;DHT22;3168;51.684;6.954;2023-08-06T09:25:13;18.20;1.00
6270;DHT22;3168;51.684;6.954;2023-08-06T09:27:38;18.30;1.00
6270;DHT22;3168;51.684;6.954;2023-08-06T09:30:05;18.10;1.00
6270;DHT22;3168;51.684;6.954;2023-08-06T09:32:46;18.00;1.00
6270;DHT22;3168;51.684;6.954;2023-08-06T09:35:15;18.20;1.00
6270;DHT22;3168;51.684;6.954;2023-08-06T09:37:40;18.40;1.00
6270;DHT22;3168;51.684;6.954;2023-08-06T09:40:23;18.90;1.00
6270;DHT22;3168;51.684;6.954;2023-08-06T09:42:36;19.30;1.00
6270;DHT22;3168;51.684;6.954;2023-08-06T09:45:05;19.30;1.00
6270;DHT22;3168;51.684;6.954;2023-08-06T09:47:24;19.40;1.00
6270;DHT22;3168;51.684;6.954;2023-08-06T09:49:50;19.40;1.00
6270;DHT22;3168;51.684;6.954;2023-08-06T09:52:16;19.10;1.00
6270;DHT22;3168;51.684;6.954;2023-08-06T09:54:43;18.80;1.00
6270;DHT22;3168;51.684;6.954;2023-08-06T09:57:08;18.60;1.00
6270;DHT22;3168;51.684;6.954;2023-08-06T09:59:33;18.40;1.00
6270;DHT22;3168;51.684;6.954;2023-08-06T10:01:59;18.30;1.00
6270;DHT22;3168;51.684;6.954;2023-08-06T10:04:25;18.30;1.00
6270;DHT22;3168;51.684;6.954;2023-08-06T10:06:51;18.30;1.00
6270;DHT22;3168;51.684;6.954;2023-08-06T10:09:16;18.30;1.00
6270;DHT22;3168;51.684;6.954;2023-08-06T10:11:42;18.20;1.00
6270;DHT22;3168;51.684;6.954;2023-08-06T10:14:10;18.20;1.00
6270;DHT22;3168;51.684;6.954;2023-08-06T10:16:34;18.30;1.00
6270;DHT22;3168;51.684;6.954;2023-08-06T10:18:59;18.40;1.00
6270;DHT22;3168;51.684;6.954;2023-08-06T10:21:25;18.40;1.00
6270;DHT22;3168;51.684;6.954;2023-08-06T10:23:53;18.50;1.00
6270;DHT22;3168;51.684;6.954;2023-08-06T10:26:19;18.80;1.00
6270;DHT22;3168;51.684;6.954;2023-08-06T10:28:44;19.10;1.00
6270;DHT22;3168;51.684;6.954;2023-08-06T10:31:10;19.40;1.00
6270;DHT22;3168;51.684;6.954;2023-08-06T10:33:42;19.60;1.00
6270;DHT22;3168;51.684;6.954;2023-08-06T10:36:08;19.30;1.00
6270;DHT22;3168;51.684;6.954;2023-08-06T10:38:33;19.40;1.00
6270;DHT22;3168;51.684;6.954;2023-08-06T10:41:01;19.30;1.00
6270;DHT22;3168;51.684;6.954;2023-08-06T10:43:35;19.40;1.00
6270;DHT22;3168;51.684;6.954;2023-08-06T10:46:02;19.10;1.00
6270;DHT22;3168;51.684;6.954;2023-08-06T10:48:29;19.10;1.00
6270;DHT22;3168;51.684;6.954;2023-08-06T10:50:55;19.30;1.00
6270;DHT22;3168;51.684;6.954;2023-08-06T10:53:21;19.50;1.00
6270;DHT22;3168;51.684;6.954;2023-08-06T10:55:48;19.70;1.00
6270;DHT22;3168;51.684;6.954;2023-08-06T10:58:15;19.70;1.00
6270;DHT22;3168;51.684;6.954;2023-08-06T11:00:40;20.00;1.00
6270;DHT22;3168;51.684;6.954;2023-08-06T11:03:06;20.00;1.00
6270;DHT22;3168;51.684;6.954;2023-08-06T11:05:31;20.10;1.00
6270;DHT22;3168;51.684;6.954;2023-08-06T11:07:57;20.30;1.00
6270;DHT22;3168;51.684;6.954;2023-08-06T11:10:23;20.40;1.00
6270;DHT22;3168;51.684;6.954;2023-08-06T11:12:49;20.50;1.00
6270;DHT22;3168;51.684;6.954;2023-08-06T11:15:14;20.50;1.00
6270;DHT22;3168;51.684;6.954;2023-08-06T11:17:40;20.30;1.00
6270;DHT22;3168;51.684;6.954;2023-08-06T11:20:07;20.30;1.00
6270;DHT22;3168;51.684;6.954;2023-08-06T11:22:32;20.20;1.00
6270;DHT22;3168;51.684;6.954;2023-08-06T11:24:58;19.70;1.00
6270;DHT22;3168;51.684;6.954;2023-08-06T11:27:25;19.50;1.00
6270;DHT22;3168;51.684;6.954;2023-08-06T11:29:50;19.40;1.00
6270;DHT22;3168;51.684;6.954;2023-08-06T11:32:15;19.40;1.00
6270;DHT22;3168;51.684;6.954;2023-08-06T11:34:41;19.30;1.00
6270;DHT22;3168;51.684;6.954;2023-08-06T11:37:07;19.20;1.00
6270;DHT22;3168;51.684;6.954;2023-08-06T11:39:33;19.10;1.00
6270;DHT22;3168;51.684;6.954;2023-08-06T11:41:59;19.00;1.00
6270;DHT22;3168;51.684;6.954;2023-08-06T11:44:24;19.10;1.00
6270;DHT22;3168;51.684;6.954;2023-08-06T11:46:52;19.10;1.00
6270;DHT22;3168;51.684;6.954;2023-08-06T11:49:18;19.10;1.00
6270;DHT22;3168;51.684;6.954;2023-08-06T11:51:44;19.00;1.00
6270;DHT22;3168;51.684;6.954;2023-08-06T11:54:09;19.00;1.00
6270;DHT22;3168;51.684;6.954;2023-08-06T11:56:35;19.00;1.00
6270;DHT22;3168;51.684;6.954;2023-08-06T11:59:01;19.10;1.00
6270;DHT22;3168;51.684;6.954;2023-08-06T12:01:26;19.30;1.00
6270;DHT22;3168;51.684;6.954;2023-08-06T12:03:52;19.20;1.00
6270;DHT22;3168;51.684;6.954;2023-08-06T12:06:18;19.30;1.00
6270;DHT22;3168;51.684;6.954;2023-08-06T12:08:44;19.40;1.00
6270;DHT22;3168;51.684;6.954;2023-08-06T12:11:09;19.40;1.00
6270;DHT22;3168;51.684;6.954;2023-08-06T12:13:35;19.00;1.00
6270;DHT22;3168;51.684;6.954;2023-08-06T12:16:01;18.50;1.00
6270;DHT22;3168;51.684;6.954;2023-08-06T12:18:27;18.00;1.00
6270;DHT22;3168;51.684;6.954;2023-08-06T12:20:53;17.60;1.00
6270;DHT22;3168;51.684;6.954;2023-08-06T12:23:18;17.30;1.00
6270;DHT22;3168;51.684;6.954;2023-08-06T12:25:45;16.80;1.00
6270;DHT22;3168;51.684;6.954;2023-08-06T12:28:11;16.80;1.00
6270;DHT22;3168;51.684;6.954;2023-08-06T12:30:36;16.60;1.00
6270;DHT22;3168;51.684;6.954;2023-08-06T12:33:02;16.60;1.00
6270;DHT22;3168;51.684;6.954;2023-08-06T12:35:28;16.40;1.00
6270;DHT22;3168;51.684;6.954;2023-08-06T12:37:54;16.50;1.00
6270;DHT22;3168;51.684;6.954;2023-08-06T12:40:20;16.50;1.00
6270;DHT22;3168;51.684;6.954;2023-08-06T12:42:46;16.20;1.00
6270;DHT22;3168;51.684;6.954;2023-08-06T12:45:12;16.20;1.00
6270;DHT22;3168;51.684;6.954;2023-08-06T12:47:38;16.20;1.00
6270;DHT22;3168;51.684;6.954;2023-08-06T12:50:04;16.10;1.00
6270;DHT22;3168;51.684;6.954;2023-08-06T12:52:30;16.10;1.00
6270;DHT22;3168;51.684;6.954;2023-08-06T12:54:56;16.10;1.00
6270;DHT22;3168;51.684;6.954;2023-08-06T12:57:22;16.10;1.00
6270;DHT22;3168;51.684;6.954;2023-08-06T12:59:48;16.10;1.00
6270;DHT22;3168;51.684;6.954;2023-08-06T13:02:14;16.10;1.00
6270;DHT22;3168;51.684;6.954;2023-08-06T13:04:39;16.10;1.00
6270;DHT22;3168;51.684;6.954;2023-08-06T13:07:05;16.10;1.00
6270;DHT22;3168;51.684;6.954;2023-08-06T13:09:31;16.10;1.00
6270;DHT22;3168;51.684;6.954;2023-08-06T13:11:57;16.10;1.00
6270;DHT22;3168;51.684;6.954;2023-08-06T13:14:23;16.20;1.00
6270;DHT22;3168;51.684;6.954;2023-08-06T13:16:48;16.20;1.00
6270;DHT22;3168;51.684;6.954;2023-08-06T13:19:14;16.20;1.00
6270;DHT22;3168;51.684;6.954;2023-08-06T13:21:59;16.20;1.00
6270;DHT22;3168;51.684;6.954;2023-08-06T13:24:24;16.10;1.00
6270;DHT22;3168;51.684;6.954;2023-08-06T13:26:49;16.00;1.00
6270;DHT22;3168;51.684;6.954;2023-08-06T13:29:15;16.10;1.00
6270;DHT22;3168;51.684;6.954;2023-08-06T13:31:41;16.00;1.00
6270;DHT22;3168;51.684;6.954;2023-08-06T13:34:07;16.10;1.00
6270;DHT22;3168;51.684;6.954;2023-08-06T13:36:32;16.10;1.00
6270;DHT22;3168;51.684;6.954;2023-08-06T13:38:58;16.20;1.00
6270;DHT22;3168;51.684;6.954;2023-08-06T13:41:24;16.20;1.00
6270;DHT22;3168;51.684;6.954;2023-08-06T13:43:51;16.20;1.00
6270;DHT22;3168;51.684;6.954;2023-08-06T13:46:17;16.20;1.00
6270;DHT22;3168;51.684;6.954;2023-08-06T13:48:42;16.20;1.00
6270;DHT22;3168;51.684;6.954;2023-08-06T13:51:08;16.20;1.00
6270;DHT22;3168;51.684;6.954;2023-08-06T13:53:34;16.10;1.00
6270;DHT22;3168;51.684;6.954;2023-08-06T13:55:59;16.20;1.00
6270;DHT22;3168;51.684;6.954;2023-08-06T13:58:25;16.20;1.00
6270;DHT22;3168;51.684;6.954;2023-08-06T14:00:51;16.20;1.00
6270;DHT22;3168;51.684;6.954;2023-08-06T14:03:17;16.10;1.00
6270;DHT22;3168;51.684;6.954;2023-08-06T14:05:43;16.10;1.00
6270;DHT22;3168;51.684;6.954;2023-08-06T14:08:08;16.10;1.00
6270;DHT22;3168;51.684;6.954;2023-08-06T14:10:34;16.20;1.00
6270;DHT22;3168;51.684;6.954;2023-08-06T14:13:00;16.10;1.00
6270;DHT22;3168;51.684;6.954;2023-08-06T14:15:26;16.30;1.00
6270;DHT22;3168;51.684;6.954;2023-08-06T14:17:51;16.20;1.00
6270;DHT22;3168;51.684;6.954;2023-08-06T14:20:17;16.20;1.00
6270;DHT22;3168;51.684;6.954;2023-08-06T14:22:43;16.30;1.00
6270;DHT22;3168;51.684;6.954;2023-08-06T14:25:09;16.40;1.00
6270;DHT22;3168;51.684;6.954;2023-08-06T14:27:34;16.60;1.00
6270;DHT22;3168;51.684;6.954;2023-08-06T14:30:00;16.70;1.00
6270;DHT22;3168;51.684;6.954;2023-08-06T14:32:26;16.80;1.00
6270;DHT22;3168;51.684;6.954;2023-08-06T14:34:52;16.80;1.00
6270;DHT22;3168;51.684;6.954;2023-08-06T14:37:17;17.00;1.00
6270;DHT22;3168;51.684;6.954;2023-08-06T14:39:50;17.00;1.00
6270;DHT22;3168;51.684;6.954;2023-08-06T14:42:16;17.10;1.00
6270;DHT22;3168;51.684;6.954;2023-08-06T14:44:42;17.20;1.00
6270;DHT22;3168;51.684;6.954;2023-08-06T14:47:08;17.20;1.00
6270;DHT22;3168;51.684;6.954;2023-08-06T14:49:33;17.20;1.00
6270;DHT22;3168;51.684;6.954;2023-08-06T14:51:59;17.20;1.00
6270;DHT22;3168;51.684;6.954;2023-08-06T14:54:25;17.20;1.00
6270;DHT22;3168;51.684;6.954;2023-08-06T14:56:51;17.10;1.00
6270;DHT22;3168;51.684;6.954;2023-08-06T14:59:16;17.00;1.00
6270;DHT22;3168;51.684;6.954;2023-08-06T15:01:42;17.00;1.00
6270;DHT22;3168;51.684;6.954;2023-08-06T15:04:09;17.00;1.00
6270;DHT22;3168;51.684;6.954;2023-08-06T15:06:34;17.00;1.00
6270;DHT22;3168;51.684;6.954;2023-08-06T15:09:00;17.00;1.00
6270;DHT22;3168;51.684;6.954;2023-08-06T15:11:27;16.80;1.00
6270;DHT22;3168;51.684;6.954;2023-08-06T15:13:52;16.80;1.00
6270;DHT22;3168;51.684;6.954;2023-08-06T15:16:18;16.70;1.00
6270;DHT22;3168;51.684;6.954;2023-08-06T15:18:44;16.60;1.00
6270;DHT22;3168;51.684;6.954;2023-08-06T15:21:10;16.50;1.00
6270;DHT22;3168;51.684;6.954;2023-08-06T15:23:35;16.40;1.00
6270;DHT22;3168;51.684;6.954;2023-08-06T15:26:01;16.30;1.00
6270;DHT22;3168;51.684;6.954;2023-08-06T15:28:27;16.20;1.00
6270;DHT22;3168;51.684;6.954;2023-08-06T15:30:53;16.20;1.00
6270;DHT22;3168;51.684;6.954;2023-08-06T15:33:19;16.20;1.00
6270;DHT22;3168;51.684;6.954;2023-08-06T15:35:45;16.40;1.00
6270;DHT22;3168;51.684;6.954;2023-08-06T15:38:10;16.30;1.00
6270;DHT22;3168;51.684;6.954;2023-08-06T15:40:36;16.40;1.00
6270;DHT22;3168;51.684;6.954;2023-08-06T15:43:02;16.40;1.00
6270;DHT22;3168;51.684;6.954;2023-08-06T15:45:28;16.30;1.00
6270;DHT22;3168;51.684;6.954;2023-08-06T15:47:54;16.20;1.00
6270;DHT22;3168;51.684;6.954;2023-08-06T15:50:19;16.30;1.00
6270;DHT22;3168;51.684;6.954;2023-08-06T15:52:45;16.20;1.00
6270;DHT22;3168;51.684;6.954;2023-08-06T15:55:11;16.10;1.00
6270;DHT22;3168;51.684;6.954;2023-08-06T15:57:37;16.10;1.00
6270;DHT22;3168;51.684;6.954;2023-08-06T16:00:03;16.00;1.00